Time;durP1;ratioP1;P1;durP2;ratioP2;P2;SDS_P1;SDS_P2;PMS_P1;PMS_P2;Temp;Humidity;BMP_temperature;BMP_pressure;BME280_temperature;BME280_humidity;BME280_pressure;Samples;Min_cycle;Max_cycle;Signal;HPM_P1;HPM_P2
2023/03/24 00:01:53;;;;;;;4.85;1.00;;;10.90;99.90;;;;;;4916035;29;20060;-77
2023/03/24 00:04:19;;;;;;;8.10;1.00;;;10.90;99.90;;;;;;4914954;29;20058;-77
2023/03/24 00:06:48;;;;;;;5.93;1.10;;;10.90;99.90;;;;;;4919654;29;20511;-76
2023/03/24 00:09:15;;;;;;;2.53;0.90;;;10.90;99.90;;;;;;4915433;29;20108;-77
2023/03/24 00:11:41;;;;;;;7.38;1.02;;;10.90;99.90;;;;;;4920028;29;20028;-77
2023/03/24 00:14:10;;;;;;;5.38;0.82;;;10.80;99.90;;;;;;4916243;29;20507;-79
2023/03/24 00:16:41;;;;;;;8.15;1.20;;;10.80;99.90;;;;;;4917358;29;20024;-78
2023/03/24 00:19:12;;;;;;;5.80;1.10;;;10.80;99.90;;;;;;4918166;29;20028;-78
2023/03/24 00:21:38;;;;;;;5.68;1.10;;;10.80;99.90;;;;;;4916440;29;20108;-79
2023/03/24 00:24:06;;;;;;;5.88;1.15;;;10.70;99.90;;;;;;4916050;29;20024;-77
2023/03/24 00:26:33;;;;;;;7.07;1.30;;;10.70;99.90;;;;;;4915801;29;20524;-78
2023/03/24 00:28:59;;;;;;;6.45;1.25;;;10.70;99.90;;;;;;4918114;29;20028;-77
2023/03/24 00:31:25;;;;;;;8.25;1.20;;;10.70;99.90;;;;;;4913185;29;20032;-77
2023/03/24 00:33:51;;;;;;;7.50;1.10;;;10.70;99.90;;;;;;4915906;29;20488;-76
2023/03/24 00:36:21;;;;;;;7.20;1.20;;;10.60;99.90;;;;;;4918895;29;20020;-76
2023/03/24 00:38:48;;;;;;;4.90;1.05;;;10.60;99.90;;;;;;4918791;29;20024;-77
2023/03/24 00:41:18;;;;;;;10.45;1.17;;;10.60;99.90;;;;;;4918727;29;20095;-76
2023/03/24 00:43:48;;;;;;;6.22;1.20;;;10.60;99.90;;;;;;4904865;29;20900;-77
2023/03/24 00:46:27;;;;;;;5.43;1.40;;;10.60;99.90;;;;;;4916482;29;20024;-75
2023/03/24 00:49:04;;;;;;;6.22;1.27;;;10.60;99.90;;;;;;4913705;29;20506;-76
2023/03/24 00:51:33;;;;;;;6.88;1.08;;;10.60;99.90;;;;;;4918663;29;20115;-77
2023/03/24 00:54:00;;;;;;;6.28;1.30;;;10.50;99.90;;;;;;4919424;29;20029;-76
2023/03/24 00:56:28;;;;;;;7.07;1.20;;;10.50;99.90;;;;;;4903080;29;20490;-76
2023/03/24 00:58:56;;;;;;;6.18;1.13;;;10.50;99.90;;;;;;4906287;29;20059;-76
2023/03/24 01:01:28;;;;;;;6.47;1.38;;;10.50;99.90;;;;;;4907050;29;20020;-77
2023/03/24 01:03:55;;;;;;;5.82;1.30;;;10.50;99.90;;;;;;4913441;29;20058;-74
2023/03/24 01:06:22;;;;;;;5.03;1.10;;;10.60;99.90;;;;;;4919012;29;20028;-75
2023/03/24 01:08:49;;;;;;;6.63;1.10;;;10.60;99.90;;;;;;4915341;29;20032;-77
2023/03/24 01:11:15;;;;;;;9.55;1.45;;;10.50;99.90;;;;;;4914697;29;20024;-77
2023/03/24 01:13:41;;;;;;;8.98;1.05;;;10.50;99.90;;;;;;4918665;29;20043;-76
2023/03/24 01:16:07;;;;;;;11.25;1.48;;;10.50;99.90;;;;;;4920461;29;20024;-75
2023/03/24 01:18:33;;;;;;;7.63;1.17;;;10.50;99.90;;;;;;4913988;29;20490;-75
2023/03/24 01:21:00;;;;;;;7.03;1.38;;;10.50;99.90;;;;;;4914604;29;20028;-75
2023/03/24 01:23:26;;;;;;;5.18;1.20;;;10.50;99.90;;;;;;4913603;29;20033;-75
2023/03/24 01:25:53;;;;;;;6.35;1.10;;;10.50;99.90;;;;;;4919903;29;20040;-75
2023/03/24 01:28:23;;;;;;;9.18;1.42;;;10.50;99.90;;;;;;4920250;29;20123;-75
2023/03/24 01:30:50;;;;;;;10.32;1.48;;;10.50;99.90;;;;;;4913290;29;20024;-76
2023/03/24 01:33:16;;;;;;;6.90;1.48;;;10.40;99.90;;;;;;4908380;29;20043;-75
2023/03/24 01:35:42;;;;;;;8.60;1.50;;;10.40;99.90;;;;;;4918532;29;20034;-75
2023/03/24 01:38:09;;;;;;;11.15;1.60;;;10.40;99.90;;;;;;4919580;29;20556;-76
2023/03/24 01:40:37;;;;;;;9.48;1.63;;;10.40;99.90;;;;;;4919972;29;20020;-75
2023/03/24 01:43:05;;;;;;;8.90;1.23;;;10.40;99.90;;;;;;4920170;29;20028;-76
2023/03/24 01:45:50;;;;;;;10.13;1.15;;;10.40;99.90;;;;;;4913401;29;20080;-76
2023/03/24 01:48:43;;;;;;;9.00;1.42;;;10.40;99.90;;;;;;4919785;29;20048;-77
2023/03/24 01:51:23;;;;;;;6.13;1.10;;;10.40;99.90;;;;;;4923671;29;20070;-75
2023/03/24 01:53:54;;;;;;;11.40;1.25;;;10.30;99.90;;;;;;4923333;29;20056;-76
2023/03/24 01:56:20;;;;;;;7.43;0.93;;;10.30;99.90;;;;;;4914090;29;20056;-77
2023/03/24 01:58:57;;;;;;;7.22;1.17;;;10.30;99.90;;;;;;4917024;29;20099;-76
2023/03/24 02:01:28;;;;;;;4.82;1.10;;;10.30;99.90;;;;;;4914502;29;20016;-77
2023/03/24 02:03:55;;;;;;;9.18;1.20;;;10.30;99.90;;;;;;4911720;29;20035;-76
2023/03/24 02:06:24;;;;;;;5.78;1.20;;;10.30;99.90;;;;;;4912636;29;20099;-77
2023/03/24 02:08:52;;;;;;;5.80;1.00;;;10.30;99.90;;;;;;4923674;29;20035;-76
2023/03/24 02:11:19;;;;;;;7.13;1.38;;;10.30;99.90;;;;;;4920836;29;20059;-77
2023/03/24 02:13:45;;;;;;;6.53;1.20;;;10.30;99.90;;;;;;4910030;29;20402;-77
2023/03/24 02:16:26;;;;;;;7.88;1.30;;;10.30;99.90;;;;;;4923539;29;20024;-77
2023/03/24 02:19:17;;;;;;;5.70;1.30;;;10.30;99.90;;;;;;4923624;29;20028;-78
2023/03/24 02:22:02;;;;;;;8.43;1.00;;;10.30;99.90;;;;;;4923301;29;20087;-76
2023/03/24 02:24:44;;;;;;;10.13;1.50;;;10.30;99.90;;;;;;4917972;29;20122;-78
2023/03/24 02:27:32;;;;;;;6.32;1.08;;;10.30;99.90;;;;;;4921215;29;20090;-77
2023/03/24 02:30:16;;;;;;;8.65;1.20;;;10.30;99.90;;;;;;4915562;29;20032;-77
2023/03/24 02:32:54;;;;;;;9.45;1.40;;;10.30;99.90;;;;;;4921595;29;20032;-77
2023/03/24 02:35:40;;;;;;;8.15;1.10;;;10.30;99.90;;;;;;4921747;29;20495;-77
2023/03/24 02:38:37;;;;;;;5.53;0.75;;;10.30;99.90;;;;;;4914594;29;20031;-76
2023/03/24 02:41:21;;;;;;;4.65;1.05;;;10.20;99.90;;;;;;4914552;29;20040;-75
2023/03/24 02:43:53;;;;;;;11.20;1.35;;;10.20;99.90;;;;;;4922303;29;20043;-76
2023/03/24 02:46:29;;;;;;;8.45;1.40;;;10.20;99.90;;;;;;4917333;29;20056;-76
2023/03/24 02:49:08;;;;;;;8.35;1.30;;;10.20;99.90;;;;;;4919267;29;20100;-75
2023/03/24 02:52:00;;;;;;;12.10;1.55;;;10.20;99.90;;;;;;4912298;29;20491;-75
2023/03/24 02:54:35;;;;;;;5.28;0.90;;;10.20;99.90;;;;;;4921398;29;20044;-76
2023/03/24 02:57:09;;;;;;;8.88;1.25;;;10.20;99.90;;;;;;4922329;29;20036;-76
2023/03/24 02:59:49;;;;;;;5.90;1.50;;;10.20;99.90;;;;;;4920133;29;20036;-75
2023/03/24 03:02:22;;;;;;;9.93;1.42;;;10.20;99.90;;;;;;4919117;29;20052;-76
2023/03/24 03:05:12;;;;;;;8.68;1.40;;;10.20;99.90;;;;;;4920902;29;20031;-75
2023/03/24 03:07:41;;;;;;;5.03;1.00;;;10.20;99.90;;;;;;4917327;29;20048;-75
2023/03/24 03:10:30;;;;;;;8.82;1.27;;;10.20;99.90;;;;;;4920669;29;20044;-76
2023/03/24 03:13:00;;;;;;;9.57;1.25;;;10.10;99.90;;;;;;4913796;29;20032;-76
2023/03/24 03:15:31;;;;;;;9.27;1.38;;;10.10;99.90;;;;;;4920489;29;20080;-76
2023/03/24 03:18:06;;;;;;;7.97;1.30;;;10.10;99.90;;;;;;4917870;29;20032;-76
2023/03/24 03:20:41;;;;;;;8.05;1.50;;;10.10;99.90;;;;;;4915834;29;20024;-76
2023/03/24 03:23:12;;;;;;;8.55;1.92;;;10.10;99.90;;;;;;4920014;29;20032;-77
2023/03/24 03:25:49;;;;;;;4.60;1.00;;;10.20;99.90;;;;;;4921620;29;20020;-77
2023/03/24 03:28:19;;;;;;;9.65;1.75;;;10.30;99.90;;;;;;4911305;29;20027;-76
2023/03/24 03:30:50;;;;;;;7.93;1.25;;;10.30;99.90;;;;;;4914402;29;20054;-77
2023/03/24 03:33:23;;;;;;;12.35;1.55;;;10.30;99.90;;;;;;4912269;29;20107;-75
2023/03/24 03:36:03;;;;;;;8.93;1.38;;;10.40;99.90;;;;;;4917770;29;20103;-77
2023/03/24 03:38:55;;;;;;;8.50;1.42;;;10.40;99.90;;;;;;4917275;29;20063;-76
2023/03/24 03:41:21;;;;;;;7.45;1.25;;;10.40;99.90;;;;;;4921441;29;20024;-76
2023/03/24 03:43:48;;;;;;;10.05;1.20;;;10.40;99.90;;;;;;4919229;29;20032;-76
2023/03/24 03:46:15;;;;;;;9.13;1.38;;;10.40;99.90;;;;;;4912874;29;20035;-77
2023/03/24 03:48:41;;;;;;;9.48;1.30;;;10.40;99.90;;;;;;4914542;29;20060;-76
2023/03/24 03:51:08;;;;;;;6.38;1.20;;;10.40;99.90;;;;;;4921599;29;20109;-76
2023/03/24 03:53:52;;;;;;;9.63;1.40;;;10.40;99.90;;;;;;4917904;29;20037;-76
2023/03/24 03:56:22;;;;;;;9.43;1.67;;;10.30;99.90;;;;;;4911645;29;20552;-76
2023/03/24 03:58:48;;;;;;;9.80;1.40;;;10.30;99.90;;;;;;4916117;29;20103;-75
2023/03/24 04:01:18;;;;;;;10.48;1.50;;;10.30;99.90;;;;;;4917310;29;20030;-76
2023/03/24 04:03:58;;;;;;;10.25;1.17;;;10.30;99.90;;;;;;4914598;29;20035;-77
2023/03/24 04:06:43;;;;;;;11.07;1.63;;;10.30;99.90;;;;;;4918255;29;20400;-77
2023/03/24 04:09:14;;;;;;;9.65;1.55;;;10.20;99.90;;;;;;4921395;29;20032;-76
2023/03/24 04:12:05;;;;;;;8.38;1.48;;;10.20;99.90;;;;;;4921541;29;20028;-77
2023/03/24 04:14:34;;;;;;;11.57;1.45;;;10.20;99.90;;;;;;4900357;29;20048;-75
2023/03/24 04:17:38;;;;;;;7.88;1.23;;;10.20;99.90;;;;;;4910856;29;20053;-75
2023/03/24 04:20:23;;;;;;;8.60;1.67;;;10.20;99.90;;;;;;4906377;29;20040;-76
2023/03/24 04:23:01;;;;;;;10.43;1.10;;;10.20;99.90;;;;;;4919678;29;20024;-76
2023/03/24 04:25:39;;;;;;;12.35;1.55;;;10.30;99.90;;;;;;4921078;29;20486;-75
2023/03/24 04:28:20;;;;;;;10.55;1.50;;;10.30;99.90;;;;;;4919703;29;20028;-76
2023/03/24 04:31:00;;;;;;;11.25;1.52;;;10.30;99.90;;;;;;4918429;29;20028;-76
2023/03/24 04:33:27;;;;;;;9.50;1.52;;;10.30;99.90;;;;;;4919142;29;20028;-76
2023/03/24 04:36:05;;;;;;;11.57;1.70;;;10.30;99.90;;;;;;4919676;29;20035;-75
2023/03/24 04:38:34;;;;;;;9.88;1.45;;;10.30;99.90;;;;;;4901354;29;20036;-76
2023/03/24 04:41:01;;;;;;;9.40;1.67;;;10.40;99.90;;;;;;4902077;29;20494;-75
2023/03/24 04:43:34;;;;;;;12.45;1.52;;;10.40;99.90;;;;;;4902025;29;20016;-75
2023/03/24 04:46:02;;;;;;;13.57;1.70;;;10.50;99.90;;;;;;4908643;29;20032;-76
2023/03/24 04:48:28;;;;;;;9.32;1.52;;;10.50;99.90;;;;;;4919430;29;20473;-76
2023/03/24 04:50:59;;;;;;;12.43;1.75;;;10.50;99.90;;;;;;4919678;29;20071;-76
2023/03/24 04:53:25;;;;;;;12.80;1.90;;;10.50;99.90;;;;;;4902576;29;20157;-76
2023/03/24 04:56:22;;;;;;;14.32;2.20;;;10.40;99.90;;;;;;4904626;29;20029;-76
2023/03/24 04:58:48;;;;;;;13.98;1.85;;;10.40;99.90;;;;;;4906507;29;20031;-75
2023/03/24 05:01:15;;;;;;;13.75;1.73;;;10.40;99.90;;;;;;4919685;29;20025;-75
2023/03/24 05:03:44;;;;;;;12.77;1.85;;;10.40;99.90;;;;;;4920740;29;20028;-76
2023/03/24 05:06:11;;;;;;;9.15;1.60;;;10.40;99.90;;;;;;4920215;29;20496;-76
2023/03/24 05:08:37;;;;;;;16.13;1.85;;;10.30;99.90;;;;;;4920181;29;20111;-76
2023/03/24 05:11:03;;;;;;;11.25;1.80;;;10.40;99.90;;;;;;4914929;29;20562;-75
2023/03/24 05:13:29;;;;;;;12.23;1.85;;;10.40;99.90;;;;;;4916537;29;20036;-76
2023/03/24 05:15:55;;;;;;;10.55;1.77;;;10.40;99.90;;;;;;4912431;29;20032;-76
2023/03/24 05:18:21;;;;;;;14.27;1.88;;;10.40;99.90;;;;;;4914262;29;20035;-76
2023/03/24 05:20:46;;;;;;;16.40;1.92;;;10.40;99.90;;;;;;4916358;29;20025;-74
2023/03/24 05:23:12;;;;;;;9.10;1.65;;;10.40;99.90;;;;;;4919269;29;20494;-76
2023/03/24 05:25:38;;;;;;;14.75;2.13;;;10.40;99.90;;;;;;4913646;29;20039;-76
2023/03/24 05:28:04;;;;;;;8.77;1.67;;;10.40;99.90;;;;;;4905717;29;20044;-77
2023/03/24 05:30:29;;;;;;;17.90;2.50;;;10.40;99.90;;;;;;4913508;29;20486;-77
2023/03/24 05:32:55;;;;;;;11.13;2.17;;;10.40;99.90;;;;;;4924027;29;20055;-76
2023/03/24 05:35:21;;;;;;;8.63;1.60;;;10.50;99.90;;;;;;4923804;29;20397;-76
2023/03/24 05:37:47;;;;;;;13.15;1.85;;;10.40;99.90;;;;;;4924150;29;20020;-75
2023/03/24 05:40:14;;;;;;;11.43;1.90;;;10.40;99.90;;;;;;4924134;29;20108;-75
2023/03/24 05:42:40;;;;;;;13.73;1.80;;;10.40;99.90;;;;;;4919021;29;20067;-76
2023/03/24 05:45:06;;;;;;;14.63;1.88;;;10.40;99.90;;;;;;4919573;29;20067;-76
2023/03/24 05:47:32;;;;;;;10.63;1.67;;;10.50;99.90;;;;;;4917099;29;20052;-77
2023/03/24 05:49:58;;;;;;;15.55;2.20;;;10.50;99.90;;;;;;4918668;29;20036;-76
2023/03/24 05:52:23;;;;;;;12.20;1.52;;;10.50;99.90;;;;;;4923530;29;20099;-76
2023/03/24 05:54:52;;;;;;;12.15;2.13;;;10.60;99.90;;;;;;4908889;29;20043;-75
2023/03/24 05:57:19;;;;;;;15.90;1.73;;;10.60;99.90;;;;;;4919296;29;20505;-76
2023/03/24 05:59:45;;;;;;;12.25;1.90;;;10.60;99.90;;;;;;4922386;29;20508;-75
2023/03/24 06:02:10;;;;;;;12.07;1.77;;;10.60;99.90;;;;;;4922229;29;20031;-76
2023/03/24 06:04:36;;;;;;;12.02;1.70;;;10.60;99.90;;;;;;4920642;29;20043;-76
2023/03/24 06:07:02;;;;;;;14.15;2.30;;;10.60;99.90;;;;;;4915033;29;20025;-75
2023/03/24 06:09:34;;;;;;;13.32;2.13;;;10.50;99.90;;;;;;4916341;29;20103;-76
2023/03/24 06:12:01;;;;;;;13.82;2.08;;;10.60;99.90;;;;;;4919409;29;20024;-77
2023/03/24 06:14:28;;;;;;;10.70;1.70;;;10.60;99.90;;;;;;4908526;29;20087;-75
2023/03/24 06:16:58;;;;;;;12.02;1.88;;;10.60;99.90;;;;;;4917221;29;20024;-76
2023/03/24 06:19:33;;;;;;;12.43;2.38;;;10.70;99.90;;;;;;4922390;29;20036;-76
2023/03/24 06:22:01;;;;;;;12.13;1.63;;;10.70;99.90;;;;;;4922986;29;20025;-75
2023/03/24 06:24:27;;;;;;;15.48;2.42;;;10.70;99.90;;;;;;4917671;29;20128;-76
2023/03/24 06:26:57;;;;;;;9.63;1.58;;;10.70;99.90;;;;;;4922125;29;20032;-74
2023/03/24 06:29:23;;;;;;;10.73;1.60;;;10.60;99.90;;;;;;4916972;29;20498;-74
2023/03/24 06:31:49;;;;;;;9.48;1.60;;;10.60;99.90;;;;;;4922514;29;20036;-75
2023/03/24 06:34:15;;;;;;;11.38;1.77;;;10.70;99.90;;;;;;4922358;29;20036;-75
2023/03/24 06:36:41;;;;;;;8.80;1.83;;;10.60;99.90;;;;;;4922833;29;20071;-75
2023/03/24 06:39:06;;;;;;;13.30;2.00;;;10.60;99.90;;;;;;4918180;29;20385;-75
2023/03/24 06:41:33;;;;;;;12.57;1.90;;;10.60;99.90;;;;;;4922176;29;20106;-75
2023/03/24 06:43:59;;;;;;;15.95;2.25;;;10.70;99.90;;;;;;4913104;29;20081;-75
2023/03/24 06:46:24;;;;;;;10.65;1.88;;;10.70;99.90;;;;;;4916165;29;20024;-76
2023/03/24 06:48:50;;;;;;;11.50;1.73;;;10.80;99.90;;;;;;4917360;29;20080;-76
2023/03/24 06:51:16;;;;;;;10.23;1.98;;;10.90;99.90;;;;;;4917403;29;20028;-76
2023/03/24 06:53:44;;;;;;;17.48;2.35;;;10.90;99.90;;;;;;4914898;29;20045;-76
2023/03/24 06:56:15;;;;;;;11.57;2.38;;;11.00;99.90;;;;;;4912638;29;20369;-76
2023/03/24 06:58:44;;;;;;;10.70;2.30;;;11.00;99.90;;;;;;4914954;29;20021;-76
2023/03/24 07:01:10;;;;;;;13.75;1.80;;;11.00;99.90;;;;;;4914484;29;20024;-76
2023/03/24 07:03:37;;;;;;;6.47;1.58;;;11.00;99.90;;;;;;4911360;29;20077;-76
2023/03/24 07:06:04;;;;;;;13.57;1.90;;;11.00;99.90;;;;;;4920175;29;20024;-76
2023/03/24 07:08:30;;;;;;;14.27;2.00;;;11.10;99.90;;;;;;4913678;29;20025;-76
2023/03/24 07:10:56;;;;;;;9.63;1.80;;;11.20;99.90;;;;;;4908313;29;20058;-78
2023/03/24 07:13:21;;;;;;;16.70;2.45;;;11.40;99.90;;;;;;4922631;29;20028;-76
2023/03/24 07:15:47;;;;;;;11.18;2.00;;;11.40;99.90;;;;;;4922262;29;20041;-77
2023/03/24 07:18:13;;;;;;;11.02;2.33;;;11.50;99.90;;;;;;4922434;29;20412;-76
2023/03/24 07:20:39;;;;;;;13.30;2.28;;;11.60;99.90;;;;;;4910751;29;20691;-77
2023/03/24 07:23:05;;;;;;;13.88;2.20;;;11.70;99.90;;;;;;4903220;29;20056;-76
2023/03/24 07:25:31;;;;;;;14.10;2.20;;;11.70;99.90;;;;;;4904991;29;20040;-77
2023/03/24 07:27:57;;;;;;;16.15;2.88;;;11.70;99.90;;;;;;4922212;29;20074;-79
2023/03/24 07:30:24;;;;;;;12.57;1.98;;;11.80;99.90;;;;;;4919665;29;20036;-75
2023/03/24 07:32:50;;;;;;;15.65;2.40;;;11.80;99.90;;;;;;4913021;29;20025;-76
2023/03/24 07:35:16;;;;;;;11.05;2.17;;;11.80;99.90;;;;;;4917452;29;20040;-76
2023/03/24 07:37:42;;;;;;;17.10;2.28;;;11.90;99.90;;;;;;4920324;29;20028;-77
2023/03/24 07:40:14;;;;;;;11.50;2.65;;;11.90;99.90;;;;;;4921304;29;20043;-76
2023/03/24 07:42:42;;;;;;;11.70;2.13;;;12.00;99.90;;;;;;4901275;29;20028;-77
2023/03/24 07:45:10;;;;;;;15.88;2.47;;;12.00;99.90;;;;;;4901468;29;20035;-77
2023/03/24 07:47:37;;;;;;;15.70;2.40;;;12.00;99.90;;;;;;4919178;29;20044;-76
2023/03/24 07:50:08;;;;;;;13.82;2.20;;;12.10;99.90;;;;;;4902482;29;20429;-77
2023/03/24 07:52:36;;;;;;;14.70;2.25;;;12.20;99.90;;;;;;4901879;29;20035;-76
2023/03/24 07:55:01;;;;;;;12.93;2.13;;;12.20;99.90;;;;;;4901304;29;20478;-77
2023/03/24 07:57:28;;;;;;;16.63;2.17;;;12.20;99.90;;;;;;4911894;29;20048;-77
2023/03/24 07:59:54;;;;;;;12.30;1.90;;;12.20;99.90;;;;;;4914264;29;20024;-76
2023/03/24 08:02:19;;;;;;;11.75;2.10;;;12.20;99.90;;;;;;4918070;29;20024;-77
2023/03/24 08:04:45;;;;;;;11.80;1.95;;;12.30;99.90;;;;;;4914898;29;20486;-75
2023/03/24 08:07:12;;;;;;;9.88;2.03;;;12.30;99.90;;;;;;4915540;29;20417;-77
2023/03/24 08:09:39;;;;;;;13.77;1.90;;;12.40;99.90;;;;;;4913078;29;20084;-78
2023/03/24 08:12:05;;;;;;;11.52;2.30;;;12.50;99.90;;;;;;4919701;29;20028;-77
2023/03/24 08:14:31;;;;;;;10.10;1.80;;;12.60;99.90;;;;;;4917201;29;20028;-78
2023/03/24 08:16:56;;;;;;;15.50;1.92;;;12.60;99.90;;;;;;4905773;29;20029;-73
2023/03/24 08:19:22;;;;;;;11.00;1.70;;;12.70;99.90;;;;;;4902399;29;20028;-72
2023/03/24 08:21:47;;;;;;;9.38;1.70;;;12.70;99.90;;;;;;4913164;29;20092;-68
2023/03/24 08:24:13;;;;;;;9.85;1.95;;;12.70;99.90;;;;;;4913929;29;20124;-68
2023/03/24 08:26:41;;;;;;;14.25;1.90;;;12.60;99.90;;;;;;4916081;29;20120;-69
2023/03/24 08:29:07;;;;;;;11.07;1.75;;;12.60;99.90;;;;;;4911880;29;20508;-75
2023/03/24 08:31:35;;;;;;;8.90;1.67;;;12.50;99.90;;;;;;4917968;29;20036;-71
2023/03/24 08:34:01;;;;;;;10.88;1.60;;;12.50;99.90;;;;;;4910588;29;20029;-71
2023/03/24 08:36:27;;;;;;;13.70;2.22;;;12.40;99.90;;;;;;4916492;29;20024;-71
2023/03/24 08:38:54;;;;;;;8.63;2.17;;;12.50;99.90;;;;;;4911336;29;20032;-71
2023/03/24 08:41:20;;;;;;;10.15;2.00;;;12.50;99.90;;;;;;4903407;29;20493;-71
2023/03/24 08:43:46;;;;;;;14.07;1.92;;;12.60;99.90;;;;;;4898963;29;20029;-71
2023/03/24 08:46:11;;;;;;;10.45;1.95;;;12.60;99.90;;;;;;4913449;29;20390;-76
2023/03/24 08:48:39;;;;;;;15.48;2.25;;;12.70;99.90;;;;;;4905731;29;20048;-78
2023/03/24 08:51:14;;;;;;;15.38;2.22;;;12.80;99.90;;;;;;4917055;29;20060;-76
2023/03/24 08:53:40;;;;;;;13.85;2.20;;;12.90;99.90;;;;;;4920767;29;20032;-75
2023/03/24 08:56:06;;;;;;;13.77;2.30;;;13.00;99.90;;;;;;4917770;29;20106;-69
2023/03/24 08:58:32;;;;;;;13.98;2.03;;;13.10;99.90;;;;;;4920266;29;20020;-68
2023/03/24 09:00:58;;;;;;;8.57;2.00;;;13.20;99.90;;;;;;4915621;29;20063;-70
2023/03/24 09:03:25;;;;;;;13.60;1.98;;;13.10;99.90;;;;;;4901338;29;20036;-70
2023/03/24 09:05:55;;;;;;;10.88;2.00;;;13.20;99.90;;;;;;4906171;29;20047;-70
2023/03/24 09:08:21;;;;;;;12.75;1.92;;;13.40;99.90;;;;;;4912955;29;20033;-69
2023/03/24 09:10:48;;;;;;;12.15;2.20;;;13.40;99.90;;;;;;4916463;29;20031;-68
2023/03/24 09:13:15;;;;;;;11.35;1.73;;;13.40;99.90;;;;;;4917301;29;20024;-69
2023/03/24 09:15:48;;;;;;;13.60;2.20;;;13.40;99.90;;;;;;4912825;29;20055;-70
2023/03/24 09:18:14;;;;;;;9.57;1.92;;;13.40;99.90;;;;;;4913199;29;20032;-69
2023/03/24 09:20:40;;;;;;;13.77;2.58;;;13.50;99.90;;;;;;4910052;29;20025;-69
2023/03/24 09:23:06;;;;;;;16.20;2.00;;;13.50;99.90;;;;;;4919635;29;20086;-69
2023/03/24 09:25:32;;;;;;;13.55;2.15;;;13.50;99.90;;;;;;4905371;29;20039;-71
2023/03/24 09:27:57;;;;;;;12.15;1.90;;;13.50;99.90;;;;;;4914630;29;20040;-71
2023/03/24 09:30:23;;;;;;;11.40;1.95;;;13.50;99.90;;;;;;4910338;29;20055;-71
2023/03/24 09:32:49;;;;;;;9.20;1.75;;;13.60;99.90;;;;;;4917945;29;20036;-71
2023/03/24 09:35:15;;;;;;;8.75;1.60;;;13.50;99.90;;;;;;4920046;29;20508;-71
2023/03/24 09:37:42;;;;;;;10.25;2.05;;;13.50;99.90;;;;;;4918978;29;20027;-72
2023/03/24 09:40:20;;;;;;;16.13;2.08;;;13.60;99.90;;;;;;4916231;29;20500;-72
2023/03/24 09:42:53;;;;;;;10.32;1.75;;;13.70;99.90;;;;;;4916206;29;20024;-72
2023/03/24 09:45:21;;;;;;;13.23;2.00;;;13.80;99.90;;;;;;4914972;29;20024;-73
2023/03/24 09:48:00;;;;;;;9.93;1.90;;;13.80;99.90;;;;;;4915616;29;20060;-71
2023/03/24 09:50:37;;;;;;;8.80;1.98;;;13.90;99.90;;;;;;4915239;29;20043;-72
2023/03/24 09:53:13;;;;;;;13.38;2.33;;;14.00;99.90;;;;;;4914672;29;20039;-74
2023/03/24 09:55:40;;;;;;;11.52;2.15;;;14.10;99.90;;;;;;4909957;29;20119;-75
2023/03/24 09:58:07;;;;;;;11.70;1.58;;;14.10;99.90;;;;;;4911012;29;20442;-73
2023/03/24 10:00:33;;;;;;;6.85;1.63;;;14.20;99.90;;;;;;4916234;29;20025;-73
2023/03/24 10:03:20;;;;;;;11.50;1.80;;;14.20;99.90;;;;;;4911478;29;20409;-71
2023/03/24 10:06:12;;;;;;;10.95;1.73;;;14.20;99.90;;;;;;4917119;29;20056;-73
2023/03/24 10:08:45;;;;;;;9.00;1.70;;;14.20;99.90;;;;;;4908343;29;20050;-74
2023/03/24 10:12:01;;;;;;;7.18;1.50;;;14.30;99.90;;;;;;4911400;29;20557;-73
2023/03/24 10:14:42;;;;;;;10.57;1.52;;;14.20;99.90;;;;;;4882607;29;20033;-74
2023/03/24 10:17:30;;;;;;;7.90;1.58;;;14.10;99.90;;;;;;4919144;29;20394;-74
2023/03/24 10:19:55;;;;;;;8.32;1.63;;;13.90;99.90;;;;;;4904336;29;20414;-71
2023/03/24 10:22:28;;;;;;;8.98;1.60;;;13.80;99.90;;;;;;4912428;29;20033;-71
2023/03/24 10:25:16;;;;;;;12.40;2.00;;;13.70;99.90;;;;;;4917348;29;20404;-71
2023/03/24 10:27:52;;;;;;;12.32;1.88;;;13.90;99.90;;;;;;4916106;29;20040;-72
2023/03/24 10:30:32;;;;;;;8.13;1.70;;;14.10;99.90;;;;;;4920355;29;20124;-71
2023/03/24 10:32:57;;;;;;;8.60;1.65;;;14.30;99.90;;;;;;4912771;29;20040;-72
2023/03/24 10:35:32;;;;;;;12.63;2.22;;;14.30;99.90;;;;;;4922039;29;20038;-74
2023/03/24 10:37:59;;;;;;;9.68;1.45;;;;;;;;;;4914933;29;20028;-73
2023/03/24 10:40:32;;;;;;;7.32;1.50;;;;;;;;;;4920907;29;20032;-72
2023/03/24 10:43:00;;;;;;;8.82;1.73;;;;;;;;;;4922804;29;20028;-73
2023/03/24 10:45:28;;;;;;;10.77;1.98;;;;;;;;;;4923002;29;20370;-72
2023/03/24 10:47:56;;;;;;;10.32;1.92;;;;;;;;;;4919136;29;20052;-73
2023/03/24 10:50:27;;;;;;;10.45;1.75;;;;;;;;;;4903931;29;20039;-74
2023/03/24 10:52:54;;;;;;;5.25;1.23;;;;;;;;;;4903453;29;20039;-75
2023/03/24 10:55:22;;;;;;;10.45;1.33;;;;;;;;;;4905225;29;20032;-73
2023/03/24 10:57:54;;;;;;;5.88;0.93;;;;;;;;;;4906412;29;20038;-73
2023/03/24 11:00:25;;;;;;;5.75;0.80;;;;;;;;;;4916797;29;20103;-73
2023/03/24 11:03:00;;;;;;;3.97;0.98;;;;;;;;;;4916945;29;20020;-74
2023/03/24 11:05:34;;;;;;;3.15;0.68;;;;;;;;;;4914324;29;20024;-73
2023/03/24 11:08:12;;;;;;;3.17;0.60;;;;;;;;;;4910371;29;20116;-73
2023/03/24 11:10:38;;;;;;;5.93;1.10;;;;;;;;;;4916310;29;20021;-75
2023/03/24 11:13:06;;;;;;;4.57;0.93;;;;;;;;;;4919788;29;20095;-72
2023/03/24 11:15:33;;;;;;;3.95;0.80;;;;;;;;;;4912385;29;20053;-74
2023/03/24 11:18:20;;;;;;;6.25;0.80;;;;;;;;;;4915414;29;20120;-74
2023/03/24 11:20:50;;;;;;;4.80;0.73;;;;;;;;;;4908620;29;20025;-74
2023/03/24 11:23:22;;;;;;;5.97;0.98;;;;;;;;;;4920458;29;20031;-74
2023/03/24 11:26:06;;;;;;;7.70;1.02;;;;;;;;;;4916715;29;20472;-73
2023/03/24 11:28:37;;;;;;;7.05;1.50;;;;;;;;;;4905801;29;20524;-72
2023/03/24 11:31:10;;;;;;;6.85;1.10;;;;;;;;;;4903149;29;20119;-72
2023/03/24 11:33:42;;;;;;;7.72;1.17;;;;;;;;;;4901276;29;20029;-74
2023/03/24 11:36:27;;;;;;;6.85;1.58;;;;;;;;;;4901206;29;20029;-73
2023/03/24 11:39:09;;;;;;;6.63;1.50;;;;;;;;;;4910262;29;20028;-74
2023/03/24 11:41:37;;;;;;;6.95;1.40;;;;;;;;;;4921879;29;20047;-73
2023/03/24 11:44:15;;;;;;;9.52;1.90;;;;;;;;;;4920410;29;20028;-74
2023/03/24 11:46:42;;;;;;;9.82;1.58;;;;;;;;;;4921290;29;20055;-69
2023/03/24 11:49:09;;;;;;;8.95;1.55;;;;;;;;;;4908542;29;20025;-71
2023/03/24 11:51:37;;;;;;;7.35;1.73;;;;;;;;;;4902378;29;20052;-72
2023/03/24 11:54:04;;;;;;;12.65;1.80;;;;;;;;;;4902657;29;20103;-72
2023/03/24 11:56:42;;;;;;;8.52;1.55;;;;;;;;;;4902386;29;20611;-71
2023/03/24 11:59:16;;;;;;;8.55;1.70;;;;;;;;;;4915099;29;20034;-71
2023/03/24 12:01:51;;;;;;;11.73;1.80;;;;;;;;;;4921239;29;20032;-70
2023/03/24 12:04:27;;;;;;;9.43;1.88;;;;;;;;;;4920313;29;20400;-73
2023/03/24 12:06:54;;;;;;;8.25;1.55;;;;;;;;;;4919809;29;20556;-72
2023/03/24 12:09:34;;;;;;;9.18;1.50;;;;;;;;;;4921115;29;20130;-73
2023/03/24 12:12:03;;;;;;;8.73;1.90;;;;;;;;;;4921143;29;20054;-68
2023/03/24 12:14:48;;;;;;;10.30;1.55;;;;;;;;;;4917501;29;20044;-67
2023/03/24 12:17:17;;;;;;;6.10;1.25;;;;;;;;;;4917128;29;20035;-68
2023/03/24 12:19:50;;;;;;;6.53;1.30;;;;;;;;;;4910932;29;20025;-68
2023/03/24 12:22:34;;;;;;;7.00;1.30;;;;;;;;;;4911555;29;20025;-67
2023/03/24 12:25:00;;;;;;;8.15;1.60;;;14.00;99.90;;;;;;4916913;29;20029;-71
2023/03/24 12:27:47;;;;;;;11.38;1.67;;;13.90;99.90;;;;;;4913101;29;20032;-71
2023/03/24 12:30:37;;;;;;;6.57;1.35;;;13.90;99.90;;;;;;4911014;29;20051;-74
2023/03/24 12:33:24;;;;;;;8.05;1.63;;;13.40;99.90;;;;;;4913291;29;20052;-70
2023/03/24 12:36:10;;;;;;;8.30;1.40;;;12.60;99.90;;;;;;4920123;29;20048;-67
2023/03/24 12:39:00;;;;;;;6.07;1.33;;;12.40;99.90;;;;;;4920669;29;20059;-67
2023/03/24 12:41:47;;;;;;;5.78;1.00;;;12.30;99.90;;;;;;4920782;29;20397;-67
2023/03/24 12:44:49;;;;;;;6.72;1.25;;;12.30;99.90;;;;;;4920862;29;20028;-68
2023/03/24 12:47:23;;;;;;;7.30;1.00;;;12.40;99.90;;;;;;4920584;29;20060;-67
2023/03/24 12:49:55;;;;;;;8.05;1.45;;;12.40;99.90;;;;;;4919818;29;20077;-67
2023/03/24 12:52:59;;;;;;;4.85;1.02;;;12.50;99.90;;;;;;4915959;29;20033;-67
2023/03/24 12:55:45;;;;;;;5.53;1.20;;;12.60;99.90;;;;;;4902761;29;20044;-76
2023/03/24 12:58:52;;;;;;;5.40;1.27;;;12.80;99.90;;;;;;4918407;29;20047;-72
2023/03/24 13:01:31;;;;;;;6.70;1.27;;;13.10;99.90;;;;;;4920439;29;20032;-73
2023/03/24 13:04:12;;;;;;;6.53;1.50;;;13.40;99.90;;;;;;4918718;29;20478;-74
2023/03/24 13:06:53;;;;;;;5.60;1.40;;;13.60;99.90;;;;;;4901533;29;20053;-74
2023/03/24 13:09:45;;;;;;;8.45;1.50;;;13.80;99.90;;;;;;4914731;29;20150;-74
2023/03/24 13:12:21;;;;;;;6.82;1.60;;;14.00;99.90;;;;;;4918118;29;20042;-73
2023/03/24 13:15:19;;;;;;;10.57;1.55;;;14.30;99.90;;;;;;4910185;29;20032;-72
2023/03/24 13:17:54;;;;;;;8.88;1.70;;;14.50;99.90;;;;;;4918733;29;20055;-74
2023/03/24 13:20:33;;;;;;;9.23;1.60;;;;;;;;;;4908339;29;20406;-77